Time;durP1;ratioP1;P1;durP2;ratioP2;P2;SDS_P1;SDS_P2;PMS_P1;PMS_P2;Temp;Humidity;BMP_temperature;BMP_pressure;BME280_temperature;BME280_humidity;BME280_pressure;Samples;Min_cycle;Max_cycle;Signal;HPM_P1;HPM_P2
2023/05/11 00:01:47;;;;;;;11.70;6.30;;;;;;;17.49;26.92;100946.85;108073;1257;62579;-65
2023/05/11 00:04:14;;;;;;;7.30;5.50;;;;;;;17.43;26.81;100949.12;108064;1254;75655;-65
2023/05/11 00:06:41;;;;;;;11.60;5.90;;;;;;;17.29;26.99;100947.70;108182;1253;72378;-62
2023/05/11 00:09:08;;;;;;;10.10;6.50;;;;;;;17.31;27.13;100948.66;108155;1254;73212;-66
2023/05/11 00:11:35;;;;;;;12.20;6.20;;;;;;;17.34;27.06;100944.27;108136;1254;63167;-67
2023/05/11 00:14:02;;;;;;;9.50;6.50;;;;;;;17.49;26.98;100944.76;108174;1253;61263;-65
2023/05/11 00:16:29;;;;;;;13.80;6.70;;;;;;;17.57;26.96;100943.41;108215;1253;75261;-63
2023/05/11 00:18:55;;;;;;;10.30;6.40;;;;;;;17.53;27.09;100941.14;108167;1254;72014;-65
2023/05/11 00:21:22;;;;;;;9.50;6.10;;;;;;;17.48;27.21;100943.01;108096;1254;74539;-65
2023/05/11 00:23:49;;;;;;;10.30;6.20;;;;;;;17.63;26.94;100939.92;108020;1252;60404;-66
2023/05/11 00:26:19;;;;;;;16.20;7.10;;;;;;;17.55;27.00;100945.13;108151;1253;60306;-66
2023/05/11 00:28:47;;;;;;;11.40;6.60;;;;;;;17.69;26.91;100941.15;108238;1253;75820;-65
2023/05/11 00:31:14;;;;;;;10.60;6.60;;;;;;;17.74;26.81;100938.27;108374;1253;71200;-64
2023/05/11 00:33:41;;;;;;;12.00;6.70;;;;;;;17.83;26.60;100936.91;108056;1254;71624;-66
2023/05/11 00:36:07;;;;;;;12.80;6.40;;;;;;;17.67;26.79;100941.97;108160;1253;60861;-66
2023/05/11 00:38:35;;;;;;;13.20;6.80;;;;;;;17.67;26.78;100944.46;108192;1252;62271;-65
2023/05/11 00:41:02;;;;;;;10.20;5.80;;;;;;;17.64;26.84;100940.88;108265;1256;73914;-63
2023/05/11 00:43:29;;;;;;;14.70;7.40;;;;;;;17.61;26.93;100943.19;108136;1253;71822;-63
2023/05/11 00:45:56;;;;;;;13.00;7.00;;;;;;;17.59;26.90;100943.45;108146;1252;75249;-64
2023/05/11 00:48:23;;;;;;;14.30;7.30;;;;;;;17.53;26.94;100941.67;108184;1253;61294;-64
2023/05/11 00:50:50;;;;;;;11.50;7.00;;;;;;;17.29;27.12;100937.56;108104;1253;62379;-64
2023/05/11 00:53:16;;;;;;;14.00;7.50;;;;;;;16.85;27.64;100939.30;108082;1252;75432;-62
2023/05/11 00:55:43;;;;;;;15.50;7.30;;;;;;;17.27;27.28;100937.67;108181;1254;70724;-64
2023/05/11 00:58:10;;;;;;;11.80;7.00;;;;;;;17.51;27.00;100941.44;108348;1253;72961;-63
2023/05/11 01:00:37;;;;;;;13.00;7.00;;;;;;;17.13;27.32;100943.02;108131;1253;62328;-66
2023/05/11 01:03:06;;;;;;;11.00;7.40;;;;;;;16.78;27.72;100944.29;108115;1254;61460;-64
2023/05/11 01:05:43;;;;;;;14.90;7.40;;;;;;;16.60;27.94;100944.41;108102;1256;74671;-63
2023/05/11 01:08:16;;;;;;;12.80;7.50;;;;;;;16.58;28.08;100943.29;108320;1252;71585;-64
2023/05/11 01:10:56;;;;;;;12.60;7.40;;;;;;;16.67;27.93;100944.46;108091;1252;70890;-65
2023/05/11 01:13:27;;;;;;;14.90;7.10;;;;;;;17.30;27.19;100944.47;108179;1256;62087;-65
2023/05/11 01:15:57;;;;;;;14.80;7.70;;;;;;;17.37;27.09;100946.92;108138;1254;60923;-67
2023/05/11 01:18:26;;;;;;;14.60;7.60;;;;;;;16.95;27.49;100945.19;108117;1254;75853;-66
2023/05/11 01:20:59;;;;;;;11.00;7.50;;;;;;;17.27;27.31;100946.77;108083;1253;71839;-65
2023/05/11 01:23:48;;;;;;;11.60;7.30;;;;;;;17.33;27.13;100946.80;108143;1253;73012;-63
2023/05/11 01:26:30;;;;;;;19.00;7.90;;;;;;;17.13;27.43;100951.02;108153;1253;63170;-64
2023/05/11 01:29:10;;;;;;;11.80;6.70;;;;;;;17.02;27.40;100952.30;108229;1253;61186;-65
2023/05/11 01:33:41;;;;;;;12.30;7.30;;;;;;;13.14;32.88;100961.24;104924;1289;599963;-66
2023/05/11 01:36:09;;;;;;;13.40;7.70;;;;;;;15.17;29.72;100953.95;107297;1264;61219;-65
2023/05/11 01:38:41;;;;;;;14.80;8.30;;;;;;;15.41;29.39;100953.27;107294;1265;60154;-64
2023/05/11 01:41:12;;;;;;;17.20;8.40;;;;;;;15.47;29.35;100955.86;107291;1266;73375;-64
2023/05/11 01:43:40;;;;;;;13.70;7.80;;;;;;;15.33;29.64;100954.00;107331;1267;71194;-66
2023/05/11 01:46:07;;;;;;;21.60;8.10;;;;;;;15.41;29.48;100953.84;107014;1263;285389;-65
2023/05/11 01:48:36;;;;;;;15.80;8.20;;;;;;;15.50;29.33;100955.53;107406;1263;63264;-66
2023/05/11 01:51:03;;;;;;;22.00;8.80;;;;;;;15.60;29.25;100955.64;107448;1263;60627;-64
2023/05/11 01:53:33;;;;;;;11.30;7.20;;;;;;;15.63;29.20;100953.01;107393;1263;72182;-65
2023/05/11 01:56:00;;;;;;;15.80;7.80;;;;;;;15.81;28.98;100949.76;107400;1264;70073;-65
2023/05/11 01:58:28;;;;;;;18.20;8.50;;;;;;;15.97;28.79;100953.65;107401;1264;74972;-65
2023/05/11 02:00:55;;;;;;;13.50;7.30;;;;;;;15.78;28.94;100949.55;107855;1256;61647;-65
2023/05/11 02:03:22;;;;;;;12.70;7.30;;;;;;;15.91;28.94;100951.98;107956;1257;62695;-65
2023/05/11 02:05:49;;;;;;;12.50;7.30;;;;;;;15.96;28.83;100952.08;107858;1257;73376;-64
2023/05/11 02:08:16;;;;;;;14.70;8.30;;;;;;;16.04;28.79;100950.84;107754;1257;69511;-65
2023/05/11 02:10:43;;;;;;;12.30;7.90;;;;;;;16.15;28.70;100951.38;107836;1257;74663;-67
2023/05/11 02:13:09;;;;;;;12.00;7.60;;;;;;;16.28;28.44;100952.89;107735;1261;62114;-64
2023/05/11 02:15:38;;;;;;;18.80;8.90;;;;;;;16.25;28.60;100950.89;107768;1260;61256;-65
2023/05/11 02:18:06;;;;;;;13.40;8.50;;;;;;;16.29;28.58;100951.93;107938;1257;74334;-66
2023/05/11 02:20:34;;;;;;;12.80;7.70;;;;;;;16.28;28.63;100954.81;107793;1257;72233;-66
2023/05/11 02:23:01;;;;;;;14.50;8.50;;;;;;;16.32;28.61;100958.91;107808;1257;74652;-64
2023/05/11 02:25:28;;;;;;;14.00;8.60;;;;;;;16.33;28.52;100960.13;107823;1257;62837;-62
2023/05/11 02:27:55;;;;;;;20.60;8.90;;;;;;;16.31;28.61;100967.44;107793;1257;62684;-66
2023/05/11 02:30:24;;;;;;;14.00;8.00;;;;;;;16.26;28.77;100968.05;107773;1256;75272;-65
2023/05/11 02:32:51;;;;;;;14.60;7.90;;;;;;;16.40;28.63;100958.35;107899;1260;70369;-66
2023/05/11 02:35:27;;;;;;;17.00;8.70;;;;;;;16.33;28.84;100966.83;107548;1256;74505;-65
2023/05/11 02:37:55;;;;;;;11.70;7.30;;;;;;;16.17;29.00;100966.66;107733;1257;61265;-66
2023/05/11 02:40:29;;;;;;;18.10;8.00;;;;;;;15.86;29.21;100969.17;108059;1254;61204;-65
2023/05/11 02:43:02;;;;;;;14.30;7.80;;;;;;;16.02;29.20;100972.72;108088;1258;75078;-64
2023/05/11 02:45:31;;;;;;;15.10;7.60;;;;;;;16.41;28.75;100970.36;108087;1254;72015;-65
2023/05/11 02:47:58;;;;;;;12.80;7.60;;;;;;;16.53;28.66;100970.64;108071;1254;74968;-65
2023/05/11 02:50:27;;;;;;;16.00;7.70;;;;;;;16.50;28.75;100969.02;107920;1254;62600;-63
2023/05/11 02:52:55;;;;;;;11.00;7.30;;;;;;;16.47;28.65;100970.03;108103;1252;61152;-63
2023/05/11 02:55:22;;;;;;;15.70;8.30;;;;;;;16.29;28.95;100969.16;107990;1254;75267;-62
2023/05/11 02:57:49;;;;;;;17.00;7.60;;;;;;;16.54;28.63;100971.50;107903;1257;69783;-65
2023/05/11 03:00:16;;;;;;;11.80;6.80;;;;;;;16.66;28.47;100971.96;107969;1254;74633;-64
2023/05/11 03:02:45;;;;;;;16.30;8.00;;;;;;;16.86;28.27;100973.30;108141;1254;63391;-65
2023/05/11 03:05:13;;;;;;;12.90;7.50;;;;;;;17.11;27.95;100978.47;108080;1253;61656;-64
2023/05/11 03:07:40;;;;;;;15.00;7.80;;;;;;;17.19;28.06;100979.49;108138;1253;75245;-66
2023/05/11 03:10:08;;;;;;;14.30;7.40;;;;;;;17.12;27.99;100979.30;108065;1253;70413;-66
2023/05/11 03:12:37;;;;;;;14.20;7.60;;;;;;;16.92;28.39;100978.14;108049;1254;71124;-66
2023/05/11 03:15:05;;;;;;;13.20;8.00;;;;;;;17.15;28.12;100984.09;108157;1254;61472;-65
2023/05/11 03:17:32;;;;;;;14.70;8.30;;;;;;;16.93;28.43;100982.54;108175;1258;60608;-67
2023/05/11 03:20:02;;;;;;;14.70;8.30;;;;;;;16.98;28.50;100988.17;107947;1254;73198;-65
2023/05/11 03:22:30;;;;;;;14.90;7.80;;;;;;;17.45;28.05;100987.71;108115;1253;71427;-65
2023/05/11 03:24:56;;;;;;;19.10;7.60;;;;;;;17.39;28.11;100992.30;108077;1256;75091;-65
2023/05/11 03:27:23;;;;;;;17.10;7.90;;;;;;;17.20;28.34;101000.90;107884;1253;63027;-66
2023/05/11 03:29:50;;;;;;;13.40;6.80;;;;;;;17.25;28.34;100999.20;107937;1253;59650;-66
2023/05/11 03:32:17;;;;;;;13.70;6.80;;;;;;;17.65;28.19;101000.48;107948;1253;74069;-66
2023/05/11 03:34:44;;;;;;;14.40;7.50;;;;;;;17.93;27.83;100999.40;107950;1252;71117;-66
2023/05/11 03:37:12;;;;;;;15.80;7.60;;;;;;;18.17;27.63;101002.40;107919;1254;74223;-66
2023/05/11 03:39:40;;;;;;;14.60;7.20;;;;;;;18.51;27.37;100998.16;108025;1256;60853;-66
2023/05/11 03:42:07;;;;;;;16.00;7.30;;;;;;;18.68;27.37;101004.69;107940;1253;62627;-66
2023/05/11 03:44:34;;;;;;;11.10;6.90;;;;;;;18.87;27.37;101003.48;108096;1254;75177;-66
2023/05/11 03:47:02;;;;;;;17.60;7.60;;;;;;;18.66;27.62;101004.45;107854;1253;70823;-66
2023/05/11 03:49:29;;;;;;;9.80;6.70;;;;;;;18.78;27.62;101003.77;108060;1254;75352;-66
2023/05/11 03:51:56;;;;;;;14.60;7.50;;;;;;;18.94;27.58;101006.78;108036;1253;63313;-65
2023/05/11 03:54:24;;;;;;;10.50;6.70;;;;;;;19.13;27.33;101007.99;108112;1253;62443;-65
2023/05/11 03:56:51;;;;;;;13.20;6.20;;;;;;;19.61;26.90;101008.85;107980;1253;75117;-65
2023/05/11 03:59:18;;;;;;;12.00;6.70;;;;;;;19.54;26.97;101012.47;107985;1253;72434;-65
2023/05/11 04:01:45;;;;;;;16.70;7.00;;;;;;;19.68;26.86;101017.92;107914;1254;74993;-65
2023/05/11 04:04:13;;;;;;;10.60;6.40;;;;;;;19.70;26.96;101017.25;107914;1253;62026;-66
2023/05/11 04:06:40;;;;;;;11.40;6.20;;;;;;;19.83;26.94;101014.86;108122;1253;61053;-66
2023/05/11 04:09:13;;;;;;;17.00;6.80;;;;;;;20.17;26.74;101014.02;108095;1254;74368;-65
2023/05/11 04:11:40;;;;;;;16.20;6.70;;;;;;;20.23;26.63;101014.65;108001;1253;72400;-67
2023/05/11 04:14:07;;;;;;;11.70;6.00;;;;;;;20.40;26.50;101017.69;107954;1253;75154;-64
2023/05/11 04:16:33;;;;;;;13.60;6.60;;;;;;;20.59;26.30;101023.43;108094;1253;63060;-65
2023/05/11 04:19:01;;;;;;;11.60;6.60;;;;;;;20.65;26.45;101025.75;108079;1257;62717;-65
2023/05/11 04:21:28;;;;;;;11.00;6.90;;;;;;;20.69;26.42;101028.50;108085;1253;74122;-65
2023/05/11 04:23:55;;;;;;;12.40;6.20;;;;;;;20.90;26.23;101034.11;108003;1253;71224;-66
2023/05/11 04:26:23;;;;;;;11.00;6.40;;;;;;;21.26;26.04;101030.10;108050;1254;73654;-67
2023/05/11 04:28:49;;;;;;;12.30;6.60;;;;;;;21.50;25.83;101030.62;108079;1257;62059;-65
2023/05/11 04:31:16;;;;;;;13.80;6.80;;;;;;;21.66;25.79;101034.21;108157;1253;60030;-67
2023/05/11 04:33:43;;;;;;;15.30;7.10;;;;;;;21.87;25.82;101032.88;108179;1252;71804;-67
2023/05/11 04:36:10;;;;;;;15.20;7.10;;;;;;;22.18;25.60;101031.45;108085;1253;69975;-66
2023/05/11 04:38:38;;;;;;;13.40;6.90;;;;;;;22.42;25.48;101029.44;108070;1254;72741;-67
2023/05/11 04:41:06;;;;;;;10.10;6.00;;;;;;;22.44;25.54;101036.75;108045;1254;63046;-67
2023/05/11 04:43:34;;;;;;;10.30;5.90;;;;;;;22.67;25.33;101037.73;108119;1253;63194;-66
2023/05/11 04:46:01;;;;;;;13.60;6.70;;;;;;;22.88;25.20;101034.05;108107;1254;74956;-66
2023/05/11 04:48:28;;;;;;;9.70;6.10;;;;;;;22.94;25.30;101030.25;108111;1254;70436;-64
2023/05/11 04:50:55;;;;;;;15.70;7.40;;;;;;;23.19;25.25;101030.71;108109;1253;72278;-63
2023/05/11 04:53:26;;;;;;;11.10;5.70;;;;;;;22.87;25.44;101032.01;108062;1257;62295;-64
2023/05/11 04:55:53;;;;;;;12.00;6.40;;;;;;;23.26;25.12;101033.56;108149;1253;61485;-65
2023/05/11 04:58:22;;;;;;;16.40;6.70;;;;;;;23.64;24.74;101030.14;108021;1254;75194;-65
2023/05/11 05:00:49;;;;;;;15.60;6.70;;;;;;;24.17;24.33;101026.84;108070;1252;69443;-67
2023/05/11 05:03:17;;;;;;;16.20;7.10;;;;;;;24.61;23.82;101024.80;108018;1254;75380;-65
2023/05/11 05:05:44;;;;;;;12.50;6.40;;;;;;;24.77;23.42;101029.22;108041;1252;62209;-64
2023/05/11 05:08:11;;;;;;;13.30;5.80;;;;;;;24.65;23.53;101028.81;108074;1253;62262;-66
2023/05/11 05:10:38;;;;;;;16.80;7.10;;;;;;;24.66;23.58;101027.61;108078;1253;75258;-66
2023/05/11 05:13:05;;;;;;;12.60;5.60;;;;;;;25.40;22.93;101030.21;108086;1253;71217;-66
2023/05/11 05:15:32;;;;;;;23.40;6.50;;;;;;;25.91;22.41;101025.88;108076;1254;73257;-66
2023/05/11 05:17:59;;;;;;;18.80;6.10;;;;;;;26.20;21.93;101027.98;108063;1257;61257;-64
2023/05/11 05:20:27;;;;;;;11.20;5.80;;;;;;;26.60;21.44;101025.20;108077;1253;62111;-68
2023/05/11 05:22:54;;;;;;;13.50;5.90;;;;;;;26.64;20.91;101024.98;108106;1253;75269;-65
2023/05/11 05:25:22;;;;;;;16.50;5.10;;;;;;;26.85;20.57;101023.48;108115;1253;72374;-65
2023/05/11 05:27:49;;;;;;;9.60;5.40;;;;;;;27.06;20.21;101028.71;108040;1253;74630;-66
2023/05/11 05:30:18;;;;;;;12.40;5.30;;;;;;;27.21;20.07;101031.15;108087;1251;60751;-65
2023/05/11 05:32:46;;;;;;;10.20;5.00;;;;;;;27.52;19.77;101027.55;108026;1253;61656;-65
2023/05/11 05:35:13;;;;;;;11.30;5.20;;;;;;;27.70;19.54;101031.23;108026;1253;75092;-66
2023/05/11 05:37:41;;;;;;;14.90;5.00;;;;;;;28.03;19.16;101023.75;108083;1253;72990;-67
2023/05/11 05:40:09;;;;;;;23.30;6.60;;;;;;;28.55;18.20;101020.36;108027;1256;75065;-66
2023/05/11 05:42:40;;;;;;;19.30;6.50;;;;;;;28.98;17.35;101024.11;108152;1253;62068;-66
2023/05/11 05:45:11;;;;;;;17.30;6.10;;;;;;;29.30;17.08;101025.13;108144;1253;62304;-68
2023/05/11 05:47:40;;;;;;;17.20;5.20;;;;;;;29.39;16.46;101025.45;108030;1254;74505;-67
2023/05/11 05:50:08;;;;;;;13.20;4.80;;;;;;;29.32;16.11;101023.98;108173;1254;72757;-66
2023/05/11 05:52:35;;;;;;;11.10;4.90;;;;;;;29.83;16.00;101024.73;108149;1254;72056;-69
2023/05/11 05:55:02;;;;;;;11.20;4.90;;;;;;;30.20;15.68;101021.75;108107;1251;62376;-67
2023/05/11 05:57:29;;;;;;;10.10;4.30;;;;;;;30.49;15.45;101021.87;108113;1254;60672;-66
2023/05/11 05:59:56;;;;;;;8.10;4.20;;;;;;;30.94;15.07;101018.88;108119;1254;74853;-66
2023/05/11 06:02:23;;;;;;;7.50;4.40;;;;;;;31.19;14.33;101016.16;108125;1257;71435;-68
2023/05/11 06:04:50;;;;;;;12.20;4.10;;;;;;;31.39;14.25;101018.62;108088;1255;73756;-67
2023/05/11 06:07:17;;;;;;;5.80;4.10;;;;;;;31.94;13.97;101020.86;108123;1254;62347;-67
2023/05/11 06:09:44;;;;;;;7.60;4.20;;;;;;;32.61;13.69;101013.33;108143;1254;61727;-67
2023/05/11 06:12:11;;;;;;;10.50;4.20;;;;;;;32.65;13.13;101012.80;108110;1252;75869;-66
2023/05/11 06:14:41;;;;;;;8.70;3.70;;;;;;;33.00;13.31;101012.08;108262;1252;71247;-67
2023/05/11 06:17:08;;;;;;;7.00;3.20;;;;;;;33.50;12.43;101011.94;108113;1254;73333;-66
2023/05/11 06:19:35;;;;;;;5.40;3.10;;;;;;;34.00;11.97;101012.23;108215;1253;60794;-66
2023/05/11 06:22:02;;;;;;;5.70;3.20;;;;;;;34.25;12.08;101013.89;108234;1253;61057;-66
2023/05/11 06:24:32;;;;;;;9.00;3.30;;;;;;;34.46;11.43;101013.48;108134;1254;74881;-67
2023/05/11 06:27:00;;;;;;;5.00;3.10;;;;;;;34.69;11.61;101014.36;108034;1258;63904;-67
2023/05/11 06:29:26;;;;;;;10.10;3.00;;;;;;;34.53;11.13;101014.38;107891;1254;64605;-66
2023/05/11 06:31:54;;;;;;;5.40;2.90;;;;;;;34.13;10.90;101013.11;107967;1257;62530;-66
2023/05/11 06:34:22;;;;;;;9.40;3.40;;;;;;;33.78;10.95;101016.34;108048;1252;62301;-66
2023/05/11 06:36:50;;;;;;;18.30;3.70;;;;;;;33.90;11.36;101009.02;108089;1254;75488;-65
2023/05/11 06:39:17;;;;;;;5.40;3.40;;;;;;;34.36;11.44;101012.42;108013;1253;72427;-65
2023/05/11 06:41:44;;;;;;;8.60;3.20;;;;;;;34.71;11.47;101014.26;108011;1254;72341;-67
2023/05/11 06:44:11;;;;;;;8.00;3.00;;;;;;;35.22;11.10;101009.71;108102;1254;60408;-66
2023/05/11 06:46:40;;;;;;;7.70;2.90;;;;;;;35.72;10.67;101013.88;108091;1254;60469;-66
2023/05/11 06:49:07;;;;;;;5.40;3.20;;;;;;;35.95;10.33;101016.12;108046;1254;67005;-67
2023/05/11 06:51:34;;;;;;;5.60;2.60;;;;;;;36.20;10.54;101016.34;108073;1253;63640;-67
2023/05/11 06:54:01;;;;;;;4.60;2.50;;;;;;;36.01;10.37;101017.48;108065;1254;66779;-67
2023/05/11 06:56:28;;;;;;;7.70;2.40;;;;;;;35.91;10.32;101020.70;108090;1253;60322;-65
2023/05/11 06:58:55;;;;;;;7.40;2.80;;;;;;;35.60;10.30;101019.05;108082;1259;61105;-67
2023/05/11 07:01:22;;;;;;;4.30;2.40;;;;;;;35.12;9.87;101019.13;108068;1253;66331;-68
2023/05/11 07:03:49;;;;;;;6.90;2.60;;;;;;;34.36;9.95;101020.17;108041;1254;72810;-66
2023/05/11 07:06:20;;;;;;;6.40;2.70;;;;;;;34.16;10.46;101018.73;108004;1254;72775;-66
2023/05/11 07:08:47;;;;;;;11.30;2.60;;;;;;;34.54;10.78;101017.67;108008;1254;61178;-67
2023/05/11 07:11:14;;;;;;;4.30;2.50;;;;;;;35.10;10.76;101012.09;108091;1254;60347;-67
2023/05/11 07:13:41;;;;;;;3.20;2.40;;;;;;;35.58;10.02;101010.66;108063;1253;67269;-67
2023/05/11 07:16:08;;;;;;;7.00;3.00;;;;;;;35.76;9.67;101010.44;108071;1254;63614;-68
2023/05/11 07:18:34;;;;;;;10.00;2.90;;;;;;;35.79;9.56;101016.42;108094;1254;64858;-66
2023/05/11 07:21:02;;;;;;;3.90;2.60;;;;;;;35.60;9.25;101016.90;108097;1254;60426;-66
2023/05/11 07:23:28;;;;;;;5.20;2.70;;;;;;;35.47;9.43;101013.92;108064;1252;60277;-67
2023/05/11 07:25:56;;;;;;;6.60;3.10;;;;;;;35.67;9.87;101011.87;108085;1253;67040;-67
2023/05/11 07:28:23;;;;;;;5.50;3.00;;;;;;;35.94;9.54;101011.83;108077;1254;63516;-67
2023/05/11 07:30:51;;;;;;;5.90;2.80;;;;;;;36.25;9.40;101009.20;108081;1253;66038;-67
2023/05/11 07:33:17;;;;;;;5.80;3.00;;;;;;;36.42;9.42;101007.20;108106;1254;60427;-67
2023/05/11 07:35:44;;;;;;;4.40;2.80;;;;;;;36.70;9.24;101005.40;108120;1253;60193;-67
2023/05/11 07:38:12;;;;;;;4.50;2.90;;;;;;;36.78;9.09;101005.85;108098;1257;66058;-67
2023/05/11 07:40:39;;;;;;;8.10;3.20;;;;;;;36.89;9.32;101006.16;108036;1254;62876;-68
2023/05/11 07:43:06;;;;;;;5.60;2.60;;;;;;;36.92;9.42;101005.33;108051;1253;66159;-66
2023/05/11 07:45:33;;;;;;;4.10;3.00;;;;;;;37.03;9.31;101002.77;108039;1254;59124;-68
2023/05/11 07:47:59;;;;;;;4.60;3.30;;;;;;;36.82;9.02;100998.52;108155;1254;60323;-67
2023/05/11 07:50:29;;;;;;;4.60;2.40;;;;;;;37.11;9.54;100992.70;108130;1253;66447;-66
2023/05/11 07:52:56;;;;;;;5.60;3.20;;;;;;;37.35;9.33;100986.35;108095;1253;63779;-67
2023/05/11 07:55:28;;;;;;;5.30;3.40;;;;;;;37.69;9.44;100988.34;108106;1253;64860;-66
2023/05/11 07:57:55;;;;;;;9.30;2.90;;;;;;;37.86;9.16;100989.61;108166;1253;60394;-66
2023/05/11 08:00:22;;;;;;;5.30;3.10;;;;;;;37.15;9.24;100989.48;108155;1254;60178;-66
2023/05/11 08:02:49;;;;;;;5.40;2.90;;;;;;;36.80;8.51;100984.20;108109;1253;65785;-67
2023/05/11 08:05:17;;;;;;;4.80;2.50;;;;;;;36.64;8.49;100981.20;108066;1257;63776;-67
2023/05/11 08:07:45;;;;;;;4.10;2.70;;;;;;;37.07;8.60;100981.65;108059;1253;66173;-66
2023/05/11 08:10:12;;;;;;;4.50;2.50;;;;;;;37.94;8.32;100981.59;108065;1252;60305;-67
2023/05/11 08:12:39;;;;;;;3.80;2.20;;;;;;;38.40;7.72;100977.63;108055;1253;60370;-66
2023/05/11 08:15:06;;;;;;;4.60;2.00;;;;;;;38.12;7.48;100975.38;108068;1254;67266;-67
2023/05/11 08:17:33;;;;;;;3.40;2.20;;;;;;;37.95;7.22;100974.91;108092;1254;63537;-69
2023/05/11 08:20:00;;;;;;;16.80;2.70;;;;;;;37.98;7.24;100975.46;108094;1254;66334;-67
2023/05/11 08:22:27;;;;;;;5.10;2.60;;;;;;;37.16;7.36;100975.01;108052;1253;60323;-67
2023/05/11 08:24:53;;;;;;;3.60;2.40;;;;;;;36.19;7.70;100977.95;108020;1254;60312;-68
2023/05/11 08:27:20;;;;;;;5.00;2.60;;;;;;;35.55;8.06;100982.38;108005;1254;67324;-68
2023/05/11 08:29:47;;;;;;;9.10;2.60;;;;;;;34.90;8.74;100986.23;108040;1254;72159;-66
2023/05/11 08:32:14;;;;;;;3.00;2.20;;;;;;;35.12;8.77;100982.88;108070;1253;65273;-68
2023/05/11 08:34:40;;;;;;;5.80;2.00;;;;;;;35.05;8.20;100978.42;108094;1254;60441;-66
2023/05/11 08:37:08;;;;;;;5.00;2.00;;;;;;;34.83;8.03;100984.03;108088;1254;60504;-67
2023/05/11 08:39:35;;;;;;;6.00;2.30;;;;;;;34.61;7.81;100987.33;108099;1257;75698;-68
2023/05/11 08:42:16;;;;;;;7.00;2.10;;;;;;;34.18;8.05;100990.72;108075;1254;70788;-68
2023/05/11 08:44:43;;;;;;;4.50;2.30;;;;;;;34.43;7.76;100993.58;108047;1254;73760;-67
2023/05/11 08:47:11;;;;;;;4.70;2.10;;;;;;;34.40;8.45;100988.06;108070;1256;61589;-67
2023/05/11 08:49:51;;;;;;;4.60;2.40;;;;;;;34.96;8.43;100983.61;108071;1254;60216;-68
2023/05/11 08:52:18;;;;;;;7.20;2.50;;;;;;;35.08;8.43;100985.29;108040;1254;66098;-68
2023/05/11 08:54:46;;;;;;;6.60;3.10;;;;;;;35.24;9.05;100987.29;108002;1254;63352;-65
2023/05/11 08:57:13;;;;;;;4.20;2.50;;;;;;;35.26;9.07;100988.99;108064;1254;72641;-67
2023/05/11 08:59:40;;;;;;;6.70;2.40;;;;;;;35.18;9.37;100989.14;108066;1254;61017;-69
2023/05/11 09:02:09;;;;;;;4.10;2.30;;;;;;;34.79;9.43;100989.77;108158;1254;60391;-68
2023/05/11 09:04:36;;;;;;;5.50;2.40;;;;;;;34.82;9.38;100987.79;108046;1254;66884;-67
2023/05/11 09:07:03;;;;;;;5.70;2.40;;;;;;;34.55;9.42;100991.30;107887;1254;71528;-68
2023/05/11 09:09:30;;;;;;;5.40;2.50;;;;;;;34.98;9.33;100985.17;107880;1254;73210;-68
2023/05/11 09:11:56;;;;;;;11.60;2.90;;;;;;;35.49;8.85;100984.27;108006;1254;60374;-67
2023/05/11 09:14:23;;;;;;;3.30;2.10;;;;;;;35.55;8.78;100984.66;108115;1254;60232;-68
2023/05/11 09:16:53;;;;;;;5.50;2.30;;;;;;;35.54;8.78;100977.78;108116;1254;67347;-67
2023/05/11 09:19:20;;;;;;;6.30;2.60;;;;;;;35.67;8.91;100973.71;108047;1254;63507;-67
2023/05/11 09:21:48;;;;;;;4.90;2.40;;;;;;;35.70;8.99;100974.23;108034;1254;65783;-66
2023/05/11 09:24:16;;;;;;;9.40;2.70;;;;;;;35.68;8.80;100972.13;108059;1256;60453;-67
2023/05/11 09:26:43;;;;;;;3.30;1.80;;;;;;;35.82;9.05;100968.27;108172;1254;60347;-67
2023/05/11 09:29:10;;;;;;;5.40;2.30;;;;;;;35.86;8.60;100969.23;108113;1253;67333;-68
2023/05/11 09:31:38;;;;;;;3.70;2.20;;;;;;;35.99;8.56;100962.55;108220;1253;63412;-68
2023/05/11 09:34:19;;;;;;;4.10;2.10;;;;;;;36.02;8.38;100964.42;108227;1257;66192;-68
2023/05/11 09:36:50;;;;;;;5.30;2.50;;;;;;;35.72;8.36;100966.13;108161;1253;59154;-68
2023/05/11 09:39:20;;;;;;;7.10;2.30;;;;;;;35.77;8.26;100959.95;108174;1251;60309;-67
2023/05/11 09:42:18;;;;;;;8.70;2.90;;;;;;;35.76;8.53;100959.66;108246;1254;67009;-67
2023/05/11 09:44:45;;;;;;;2.70;2.50;;;;;;;35.26;8.56;100960.41;108159;1254;62725;-66
2023/05/11 09:47:18;;;;;;;3.30;2.40;;;;;;;34.75;8.49;100960.30;108170;1252;66179;-67
2023/05/11 09:49:46;;;;;;;5.20;2.40;;;;;;;34.69;8.47;100953.08;108160;1254;60076;-67
2023/05/11 09:52:15;;;;;;;6.00;2.60;;;;;;;34.78;8.71;100951.57;108177;1254;61321;-67
2023/05/11 09:54:47;;;;;;;5.10;2.40;;;;;;;34.90;8.56;100944.02;108156;1254;67269;-66
2023/05/11 09:57:28;;;;;;;5.00;2.30;;;;;;;34.96;8.56;100940.41;108266;1253;69534;-66
2023/05/11 09:59:57;;;;;;;4.10;2.40;;;;;;;34.98;8.87;100938.50;108145;1254;66100;-66
2023/05/11 10:02:28;;;;;;;7.00;2.20;;;;;;;35.10;9.40;100942.44;108036;1253;62403;-68
2023/05/11 10:04:56;;;;;;;5.60;2.80;;;;;;;35.11;9.05;100937.14;108199;1251;60487;-69
2023/05/11 10:07:31;;;;;;;9.00;2.40;;;;;;;35.15;8.90;100941.05;108144;1251;74342;-67
2023/05/11 10:10:00;;;;;;;5.80;2.70;;;;;;;35.03;8.71;100938.17;108305;1251;63617;-68
2023/05/11 10:12:29;;;;;;;4.10;2.40;;;;;;;35.04;8.80;100935.94;108203;1256;74761;-65
2023/05/11 10:15:04;;;;;;;5.10;2.60;;;;;;;35.04;8.82;100933.16;108222;1256;59922;-68
2023/05/11 10:17:31;;;;;;;4.90;2.40;;;;;;;35.26;9.08;100933.04;108221;1251;60488;-67
2023/05/11 10:19:58;;;;;;;5.10;2.70;;;;;;;35.43;8.70;100930.55;108174;1251;67280;-68
2023/05/11 10:22:27;;;;;;;5.20;2.60;;;;;;;35.43;8.91;100930.98;108411;1250;64109;-67
2023/05/11 10:24:57;;;;;;;6.50;3.00;;;;;;;35.03;8.36;100926.29;108311;1257;66014;-67
2023/05/11 10:27:24;;;;;;;5.20;2.80;;;;;;;34.74;8.57;100920.23;108192;1253;60358;-68
2023/05/11 10:29:51;;;;;;;6.70;2.80;;;;;;;34.82;8.64;100920.29;108204;1256;61299;-68
2023/05/11 10:32:18;;;;;;;6.70;2.50;;;;;;;35.13;8.76;100918.27;108246;1251;65880;-67
2023/05/11 10:34:46;;;;;;;5.00;2.40;;;;;;;35.38;8.68;100912.24;108248;1251;62416;-66
2023/05/11 10:37:14;;;;;;;8.90;3.10;;;;;;;35.46;8.32;100907.20;108258;1251;65185;-68
2023/05/11 10:39:41;;;;;;;4.00;2.30;;;;;;;35.45;8.78;100908.83;108277;1251;60439;-69
2023/05/11 10:42:23;;;;;;;6.90;2.40;;;;;;;35.60;8.86;100902.48;108253;1251;60412;-69
2023/05/11 10:45:04;;;;;;;5.40;3.10;;;;;;;35.83;8.38;100901.98;108270;1251;67211;-66
2023/05/11 10:47:36;;;;;;;;;;;;;;;35.81;8.48;100898.42;108217;1256;63644;-68
2023/05/11 10:50:09;;;;;;;7.00;2.70;;;;;;;35.69;8.49;100894.40;108144;1254;66427;-68
2023/05/11 10:53:00;;;;;;;7.20;2.70;;;;;;;35.16;8.81;100893.79;108238;1255;60290;-68
2023/05/11 10:55:33;;;;;;;6.90;2.40;;;;;;;34.90;9.02;100897.71;108245;1251;60266;-68
2023/05/11 10:58:13;;;;;;;7.40;2.90;;;;;;;35.03;9.09;100901.36;108201;1251;66168;-68
2023/05/11 11:01:02;;;;;;;4.40;2.70;;;;;;;35.09;8.87;100902.25;108172;1251;63355;-69
2023/05/11 11:03:29;;;;;;;10.20;2.80;;;;;;;34.59;8.72;100898.60;108204;1251;66102;-69
2023/05/11 11:05:56;;;;;;;7.10;3.00;;;;;;;34.02;9.04;100901.54;108291;1254;61668;-70
2023/05/11 11:08:28;;;;;;;5.00;2.40;;;;;;;33.96;9.12;100899.66;108206;1256;62393;-68
2023/05/11 11:10:55;;;;;;;5.20;2.60;;;;;;;34.30;9.15;100894.39;108263;1256;74113;-68
2023/05/11 11:13:23;;;;;;;4.80;2.90;;;;;;;34.41;8.83;100891.14;108240;1251;68877;-68
2023/05/11 11:15:53;;;;;;;8.90;2.70;;;;;;;34.76;8.65;100883.08;108235;1251;66314;-68
2023/05/11 11:18:27;;;;;;;7.60;2.60;;;;;;;34.42;8.82;100878.15;108293;1253;60296;-68
2023/05/11 11:20:55;;;;;;;5.40;2.30;;;;;;;34.34;8.81;100875.45;108208;1251;62300;-70
2023/05/11 11:23:47;;;;;;;6.90;2.20;;;;;;;34.75;8.93;100872.71;108202;1251;75421;-68
2023/05/11 11:26:49;;;;;;;4.40;2.70;;;;;;;34.04;9.07;100872.85;108168;1251;72513;-68